Time;durP1;ratioP1;P1;durP2;ratioP2;P2;SDS_P1;SDS_P2;PMS_P1;PMS_P2;Temp;Humidity;BMP_temperature;BMP_pressure;BME280_temperature;BME280_humidity;BME280_pressure;Samples;Min_cycle;Max_cycle;Signal;HPM_P1;HPM_P2
2023/01/09 00:01:44;;;;;;;30.20;17.13;;;7.40;99.90;;;;;;5065419;28;20025;-70
2023/01/09 00:04:11;;;;;;;31.27;18.10;;;7.40;99.90;;;;;;5068044;28;20465;-71
2023/01/09 00:06:39;;;;;;;26.42;15.38;;;7.40;99.90;;;;;;5053935;28;20063;-71
2023/01/09 00:09:05;;;;;;;29.10;18.00;;;7.30;99.90;;;;;;5034747;28;20031;-70
2023/01/09 00:11:31;;;;;;;31.38;16.25;;;7.30;99.90;;;;;;5053527;28;20476;-71
2023/01/09 00:13:57;;;;;;;30.85;17.80;;;7.30;99.90;;;;;;5070491;28;20107;-71
2023/01/09 00:16:24;;;;;;;29.70;17.70;;;7.20;99.90;;;;;;5062942;28;20107;-72
2023/01/09 00:18:52;;;;;;;26.50;14.75;;;7.20;99.90;;;;;;5052161;28;20418;-70
2023/01/09 00:21:18;;;;;;;23.98;14.60;;;7.20;99.90;;;;;;5064436;28;20029;-71
2023/01/09 00:23:46;;;;;;;31.05;17.52;;;7.10;99.90;;;;;;5069838;28;20083;-71
2023/01/09 00:26:13;;;;;;;28.90;16.48;;;7.10;99.90;;;;;;5064881;28;20028;-70
2023/01/09 00:28:39;;;;;;;36.30;20.83;;;7.10;99.90;;;;;;5054265;28;20104;-71
2023/01/09 00:31:08;;;;;;;40.78;22.13;;;7.10;99.90;;;;;;5065111;28;20380;-71
2023/01/09 00:33:38;;;;;;;39.20;20.15;;;7.00;99.90;;;;;;5054123;28;20509;-70
2023/01/09 00:36:04;;;;;;;36.25;20.90;;;7.00;99.90;;;;;;5054080;28;20029;-70
2023/01/09 00:38:30;;;;;;;32.35;19.25;;;7.00;99.90;;;;;;5072508;28;20021;-71
2023/01/09 00:40:57;;;;;;;31.27;19.10;;;6.90;99.90;;;;;;5059570;28;20067;-70
2023/01/09 00:43:28;;;;;;;24.90;14.98;;;7.00;99.90;;;;;;5053305;28;20032;-71
2023/01/09 00:45:54;;;;;;;27.13;16.40;;;6.90;99.90;;;;;;5052925;28;20027;-70
2023/01/09 00:48:25;;;;;;;56.10;29.85;;;6.90;99.90;;;;;;5034904;28;20119;-70
2023/01/09 00:50:54;;;;;;;41.22;25.73;;;7.00;99.90;;;;;;5051457;28;20025;-71
2023/01/09 00:53:23;;;;;;;22.80;14.05;;;7.00;99.90;;;;;;5052830;28;20115;-70
2023/01/09 00:55:52;;;;;;;26.13;12.77;;;6.90;99.90;;;;;;5051071;28;20392;-69
2023/01/09 00:58:19;;;;;;;22.42;13.88;;;6.90;99.90;;;;;;5044989;28;20021;-70
2023/01/09 01:00:44;;;;;;;25.05;12.73;;;7.00;99.90;;;;;;5055964;28;20036;-70
2023/01/09 01:03:10;;;;;;;25.08;14.20;;;6.90;99.90;;;;;;5052429;28;20033;-70
2023/01/09 01:08:21;;;;;;;24.48;13.80;;;6.80;99.90;;;;;;5051048;28;20025;-72
2023/01/09 01:10:47;;;;;;;28.70;14.63;;;6.80;99.90;;;;;;5034695;28;20025;-70
2023/01/09 01:13:14;;;;;;;25.38;13.88;;;6.80;99.90;;;;;;5052522;28;20439;-70
2023/01/09 01:15:41;;;;;;;23.83;14.25;;;6.80;99.90;;;;;;5070900;28;20021;-70
2023/01/09 01:18:08;;;;;;;22.95;13.32;;;6.80;99.90;;;;;;5060820;28;20468;-70
2023/01/09 01:20:34;;;;;;;25.08;13.27;;;6.80;99.90;;;;;;5057258;28;20037;-71
2023/01/09 01:23:00;;;;;;;24.05;14.48;;;6.80;99.90;;;;;;5052653;28;20064;-70
2023/01/09 01:25:27;;;;;;;25.50;16.45;;;6.70;99.90;;;;;;5044428;28;20506;-69
2023/01/09 01:27:53;;;;;;;21.83;13.15;;;6.70;99.90;;;;;;5064943;28;20025;-70
2023/01/09 01:30:19;;;;;;;21.75;12.95;;;6.80;99.90;;;;;;5045227;28;20028;-70
2023/01/09 01:32:45;;;;;;;23.05;14.63;;;6.70;99.90;;;;;;5059254;28;20022;-70
2023/01/09 01:35:11;;;;;;;26.73;12.48;;;6.70;99.90;;;;;;5052007;28;20083;-72
2023/01/09 01:37:38;;;;;;;25.52;14.68;;;6.70;99.90;;;;;;5053988;28;20415;-72
2023/01/09 01:40:05;;;;;;;25.20;13.55;;;6.70;99.90;;;;;;5055399;28;20031;-71
2023/01/09 01:42:32;;;;;;;28.65;17.08;;;6.60;99.90;;;;;;5055846;28;20436;-71
2023/01/09 01:45:10;;;;;;;28.30;15.60;;;6.60;99.90;;;;;;5052051;28;20029;-72
2023/01/09 01:47:42;;;;;;;33.00;16.77;;;6.60;99.90;;;;;;5056975;28;20045;-71
2023/01/09 01:50:23;;;;;;;29.77;16.87;;;6.50;99.90;;;;;;5049943;28;20075;-71
2023/01/09 01:53:06;;;;;;;32.45;18.30;;;6.50;99.90;;;;;;5045111;28;20112;-72
2023/01/09 01:55:42;;;;;;;27.23;15.32;;;6.50;99.90;;;;;;5047838;28;20021;-73
2023/01/09 01:58:11;;;;;;;30.27;16.38;;;6.60;99.90;;;;;;5044012;28;20100;-73
2023/01/09 02:00:42;;;;;;;25.15;15.07;;;6.60;99.90;;;;;;5056015;28;20025;-73
2023/01/09 02:03:09;;;;;;;25.85;14.98;;;6.60;99.90;;;;;;5055797;28;20473;-72
2023/01/09 02:05:37;;;;;;;25.60;14.40;;;6.60;99.90;;;;;;5055579;28;20028;-71
2023/01/09 02:08:04;;;;;;;26.90;15.63;;;6.60;99.90;;;;;;5048358;28;20034;-72
2023/01/09 02:10:31;;;;;;;24.25;15.05;;;6.50;99.90;;;;;;5057548;28;20025;-73
2023/01/09 02:12:57;;;;;;;27.05;15.80;;;6.50;99.90;;;;;;5060318;28;20021;-73
2023/01/09 02:15:23;;;;;;;25.42;14.82;;;6.40;99.90;;;;;;5055467;28;20021;-72
2023/01/09 02:18:03;;;;;;;30.63;16.63;;;6.40;99.90;;;;;;5049147;28;20097;-72
2023/01/09 02:20:35;;;;;;;28.95;15.35;;;6.40;99.90;;;;;;5066938;28;20037;-72
2023/01/09 02:23:48;;;;;;;29.83;17.90;;;6.40;99.90;;;;;;5067728;28;20036;-72
2023/01/09 02:26:51;;;;;;;28.30;14.70;;;6.40;99.90;;;;;;5058241;28;20102;-71
2023/01/09 02:29:55;;;;;;;32.63;18.42;;;6.30;99.90;;;;;;5047150;28;20025;-72
2023/01/09 02:32:40;;;;;;;26.55;14.93;;;6.30;99.90;;;;;;5053110;28;20033;-72
2023/01/09 02:35:09;;;;;;;24.50;14.07;;;6.30;99.90;;;;;;5057635;28;20384;-72
2023/01/09 02:37:35;;;;;;;31.05;15.95;;;6.30;99.90;;;;;;5043397;28;20083;-72
2023/01/09 02:40:12;;;;;;;33.17;17.67;;;6.30;99.90;;;;;;5053841;28;20021;-72
2023/01/09 02:42:42;;;;;;;28.20;16.92;;;6.20;99.90;;;;;;5068380;28;20024;-73
2023/01/09 02:45:08;;;;;;;25.88;15.05;;;6.30;99.90;;;;;;5062584;28;20391;-72
2023/01/09 02:47:52;;;;;;;26.27;14.60;;;6.30;99.90;;;;;;5055909;28;20036;-72
2023/01/09 02:50:23;;;;;;;25.23;15.43;;;6.30;99.90;;;;;;5064677;28;20115;-73
2023/01/09 02:52:48;;;;;;;24.50;14.95;;;6.30;99.90;;;;;;5070996;28;20491;-73
2023/01/09 02:55:39;;;;;;;26.83;14.90;;;6.30;99.90;;;;;;5054841;28;20029;-73
2023/01/09 02:58:37;;;;;;;29.08;15.57;;;6.30;99.90;;;;;;5049265;28;20422;-73
2023/01/09 03:01:06;;;;;;;30.23;15.98;;;6.30;99.90;;;;;;5053705;28;20491;-73
2023/01/09 03:03:45;;;;;;;25.10;13.43;;;6.40;99.90;;;;;;5066512;28;20119;-73
2023/01/09 03:06:50;;;;;;;29.92;15.38;;;6.30;99.90;;;;;;5074533;28;20024;-70
2023/01/09 03:09:21;;;;;;;26.48;15.32;;;6.40;99.90;;;;;;4965048;28;20030;-70
2023/01/09 03:11:54;;;;;;;24.02;15.13;;;6.40;99.90;;;;;;4982480;28;20042;-70
2023/01/09 03:14:24;;;;;;;25.52;14.05;;;6.40;99.90;;;;;;4980887;28;20438;-70
2023/01/09 03:16:57;;;;;;;26.80;15.07;;;6.40;99.90;;;;;;4979307;28;20126;-70
2023/01/09 03:19:28;;;;;;;27.08;13.90;;;6.40;99.90;;;;;;4972162;28;20026;-70
2023/01/09 03:21:55;;;;;;;23.05;13.80;;;6.30;99.90;;;;;;4986436;28;20046;-70
2023/01/09 03:24:21;;;;;;;24.60;13.43;;;6.40;99.90;;;;;;4973467;28;20042;-70
2023/01/09 03:26:50;;;;;;;23.45;13.15;;;6.40;99.90;;;;;;4970982;28;20530;-70
2023/01/09 03:29:16;;;;;;;22.45;13.52;;;6.40;99.90;;;;;;4961977;28;20046;-70
2023/01/09 03:31:41;;;;;;;23.38;14.15;;;6.40;99.90;;;;;;4986351;28;20043;-70
2023/01/09 03:34:07;;;;;;;22.75;13.63;;;6.40;99.90;;;;;;4973359;28;20533;-70
2023/01/09 03:36:33;;;;;;;21.60;12.27;;;6.40;99.90;;;;;;4973732;28;20186;-70
2023/01/09 03:38:59;;;;;;;22.70;12.77;;;6.40;99.90;;;;;;4973711;28;20031;-70
2023/01/09 03:41:25;;;;;;;20.13;11.90;;;6.40;99.90;;;;;;4972715;28;20042;-70
2023/01/09 03:43:50;;;;;;;24.35;14.88;;;6.40;99.90;;;;;;5039537;28;20048;-70
2023/01/09 03:46:16;;;;;;;25.25;15.35;;;6.40;99.90;;;;;;5073522;28;20539;-70
2023/01/09 03:48:42;;;;;;;23.42;14.07;;;6.40;99.90;;;;;;5064148;28;20087;-70
2023/01/09 03:51:08;;;;;;;23.95;15.40;;;6.40;99.90;;;;;;5060044;28;20017;-70
2023/01/09 03:53:34;;;;;;;28.58;16.27;;;6.40;99.90;;;;;;5063852;28;20028;-72
2023/01/09 03:56:00;;;;;;;28.60;17.75;;;6.40;99.90;;;;;;5073795;28;20021;-69
2023/01/09 03:58:26;;;;;;;30.08;18.23;;;6.40;99.90;;;;;;5073923;28;20039;-70
2023/01/09 04:00:58;;;;;;;28.65;16.73;;;6.40;99.90;;;;;;5058490;28;20400;-70
2023/01/09 04:03:24;;;;;;;27.17;15.53;;;6.40;99.90;;;;;;5044693;28;20459;-70
2023/01/09 04:05:50;;;;;;;28.95;15.68;;;6.40;99.90;;;;;;5053091;28;20082;-70
2023/01/09 04:08:16;;;;;;;21.35;12.85;;;6.50;99.90;;;;;;5053591;28;20064;-70
2023/01/09 04:10:47;;;;;;;26.73;14.20;;;6.50;99.90;;;;;;5057249;28;20082;-70
2023/01/09 04:13:13;;;;;;;21.88;12.77;;;6.50;99.90;;;;;;5069230;28;20025;-70
2023/01/09 04:15:38;;;;;;;26.35;14.27;;;6.50;99.90;;;;;;5059291;28;20391;-71
2023/01/09 04:18:04;;;;;;;27.95;17.35;;;6.50;99.90;;;;;;5064955;28;20025;-71
2023/01/09 04:20:31;;;;;;;24.48;14.10;;;6.50;99.90;;;;;;5053129;28;20040;-70
2023/01/09 04:22:58;;;;;;;28.23;14.80;;;6.60;99.90;;;;;;5051686;28;20530;-70
2023/01/09 04:25:25;;;;;;;24.95;14.20;;;6.60;99.90;;;;;;5067774;28;20036;-71
2023/01/09 04:27:51;;;;;;;30.10;14.23;;;6.60;99.90;;;;;;5063396;28;20098;-71
2023/01/09 04:30:17;;;;;;;28.42;13.95;;;6.60;99.90;;;;;;5059510;28;20469;-71
2023/01/09 04:32:43;;;;;;;32.03;16.00;;;6.70;99.90;;;;;;5065561;28;20096;-70
2023/01/09 04:35:09;;;;;;;25.27;13.20;;;6.60;99.90;;;;;;5066074;28;20111;-70
2023/01/09 04:37:35;;;;;;;23.25;12.10;;;6.60;99.90;;;;;;5065210;28;20025;-72
2023/01/09 04:40:07;;;;;;;27.25;13.52;;;6.70;99.90;;;;;;5052795;28;20040;-70
2023/01/09 04:42:33;;;;;;;22.50;11.63;;;6.70;99.90;;;;;;5053186;28;20048;-70
2023/01/09 04:45:00;;;;;;;22.08;11.45;;;6.70;99.90;;;;;;5051220;28;20049;-69
2023/01/09 04:47:26;;;;;;;28.20;16.67;;;6.70;99.90;;;;;;5053065;28;20048;-70
2023/01/09 04:49:52;;;;;;;29.35;13.85;;;6.70;99.90;;;;;;5052707;28;20045;-70
2023/01/09 04:52:18;;;;;;;26.70;14.40;;;6.70;99.90;;;;;;5052722;28;20033;-71
2023/01/09 04:54:44;;;;;;;26.58;14.02;;;6.70;99.90;;;;;;5054542;28;20024;-71
2023/01/09 04:57:10;;;;;;;25.10;14.18;;;6.70;99.90;;;;;;5052510;28;20025;-70
2023/01/09 04:59:36;;;;;;;18.77;11.13;;;6.70;99.90;;;;;;5041254;28;20033;-70
2023/01/09 05:02:02;;;;;;;18.95;9.85;;;6.80;99.90;;;;;;5042857;28;20057;-70
2023/01/09 05:04:28;;;;;;;23.63;11.10;;;6.80;99.90;;;;;;5038589;28;20041;-70
2023/01/09 05:06:53;;;;;;;19.17;12.07;;;6.70;99.90;;;;;;5030311;28;20036;-71
2023/01/09 05:09:20;;;;;;;25.75;13.30;;;6.70;99.90;;;;;;5066703;28;20027;-71
2023/01/09 05:11:46;;;;;;;22.58;13.68;;;6.70;99.90;;;;;;5073031;28;20025;-71
2023/01/09 05:14:12;;;;;;;27.88;17.48;;;6.70;99.90;;;;;;5064244;28;20021;-71
2023/01/09 05:16:38;;;;;;;29.38;15.30;;;6.70;99.90;;;;;;5068532;28;20028;-71
2023/01/09 05:19:04;;;;;;;29.77;15.07;;;6.80;99.90;;;;;;5052711;28;20510;-71
2023/01/09 05:21:29;;;;;;;19.40;11.52;;;6.80;99.90;;;;;;5053663;28;20032;-71
2023/01/09 05:23:55;;;;;;;22.35;12.02;;;6.80;99.90;;;;;;5064615;28;20048;-70
2023/01/09 05:26:22;;;;;;;30.27;14.45;;;6.90;99.90;;;;;;5065823;28;20106;-70
2023/01/09 05:28:52;;;;;;;31.45;15.43;;;6.90;99.90;;;;;;5049581;28;20021;-71
2023/01/09 05:31:19;;;;;;;29.45;14.68;;;6.90;99.90;;;;;;5032018;28;20025;-70
2023/01/09 05:33:45;;;;;;;28.75;16.42;;;6.90;99.90;;;;;;5045433;28;20037;-71
2023/01/09 05:36:11;;;;;;;30.23;14.18;;;6.90;99.90;;;;;;5064718;28;20032;-71
2023/01/09 05:38:37;;;;;;;24.55;13.35;;;7.00;99.90;;;;;;5065340;28;20024;-71
2023/01/09 05:41:03;;;;;;;28.83;15.23;;;7.00;99.90;;;;;;5076345;28;20017;-71
2023/01/09 05:43:29;;;;;;;32.15;14.55;;;7.00;99.90;;;;;;5067708;28;20029;-71
2023/01/09 05:45:55;;;;;;;26.17;13.20;;;7.10;99.90;;;;;;5071861;28;20430;-72
2023/01/09 05:48:21;;;;;;;29.45;15.82;;;7.10;99.90;;;;;;5057823;28;20017;-71
2023/01/09 05:50:47;;;;;;;22.10;13.02;;;7.10;99.90;;;;;;5072254;28;20123;-71
2023/01/09 05:53:13;;;;;;;22.35;12.63;;;7.20;99.90;;;;;;5066646;28;20451;-71
2023/01/09 05:55:39;;;;;;;27.40;14.32;;;7.20;99.90;;;;;;5056036;28;20117;-71
2023/01/09 05:58:05;;;;;;;22.13;12.00;;;7.20;99.90;;;;;;5055496;28;20025;-72
2023/01/09 06:00:31;;;;;;;23.17;12.75;;;7.30;99.90;;;;;;5071503;28;20056;-72
2023/01/09 06:02:57;;;;;;;26.73;13.43;;;7.30;99.90;;;;;;5066638;28;20377;-71
2023/01/09 06:05:23;;;;;;;26.23;14.68;;;7.30;99.90;;;;;;5068903;28;20542;-71
2023/01/09 06:07:49;;;;;;;28.45;14.02;;;7.40;99.90;;;;;;5055862;28;20025;-71
2023/01/09 06:10:15;;;;;;;23.00;12.57;;;7.40;99.90;;;;;;5070545;28;20035;-71
2023/01/09 06:12:45;;;;;;;22.02;11.88;;;7.50;99.90;;;;;;5066687;28;20116;-71
2023/01/09 06:15:11;;;;;;;27.60;12.23;;;7.50;99.90;;;;;;5069494;28;20042;-71
2023/01/09 06:17:37;;;;;;;24.58;11.45;;;7.50;99.90;;;;;;5068654;28;20025;-71
2023/01/09 06:20:03;;;;;;;21.23;12.20;;;7.60;99.90;;;;;;5054184;28;20032;-71
2023/01/09 06:22:29;;;;;;;23.80;14.25;;;7.60;99.90;;;;;;5063207;28;20032;-71
2023/01/09 06:24:54;;;;;;;33.83;19.55;;;7.70;99.90;;;;;;5075836;28;20036;-71
2023/01/09 06:27:20;;;;;;;37.03;19.60;;;7.70;99.90;;;;;;5068044;28;20385;-71
2023/01/09 06:29:46;;;;;;;31.50;17.35;;;7.80;99.90;;;;;;5053923;28;20025;-71
2023/01/09 06:32:12;;;;;;;25.85;14.77;;;7.80;99.90;;;;;;5055652;28;20104;-71
2023/01/09 06:34:38;;;;;;;20.63;11.82;;;7.90;99.90;;;;;;5055485;28;20064;-71
2023/01/09 06:37:03;;;;;;;19.50;12.07;;;7.90;99.90;;;;;;5063095;28;20402;-71
2023/01/09 06:39:29;;;;;;;21.02;11.88;;;8.00;99.90;;;;;;5074208;28;20498;-70
2023/01/09 06:41:55;;;;;;;22.63;13.30;;;8.00;99.90;;;;;;5066128;28;20020;-71
2023/01/09 06:44:21;;;;;;;24.27;13.45;;;8.00;99.90;;;;;;5074795;28;20110;-71
2023/01/09 06:46:47;;;;;;;25.65;12.55;;;8.10;99.90;;;;;;5053277;28;20041;-72
2023/01/09 06:49:12;;;;;;;25.88;13.73;;;8.10;99.90;;;;;;5068667;28;20028;-71
2023/01/09 06:51:38;;;;;;;23.63;11.95;;;8.10;99.90;;;;;;5062705;28;20040;-71
2023/01/09 06:54:04;;;;;;;27.60;14.45;;;8.10;99.90;;;;;;5061009;28;20123;-71
2023/01/09 06:56:30;;;;;;;27.27;13.57;;;8.10;99.90;;;;;;5054003;28;20071;-71
2023/01/09 06:58:56;;;;;;;23.15;12.50;;;8.10;99.90;;;;;;5068424;28;20656;-71
2023/01/09 07:01:21;;;;;;;32.08;15.30;;;8.10;99.90;;;;;;5054956;28;20456;-71
2023/01/09 07:03:47;;;;;;;39.45;21.60;;;8.10;99.90;;;;;;5054660;28;20043;-72
2023/01/09 07:06:14;;;;;;;29.33;15.90;;;8.10;99.90;;;;;;5054851;28;20325;-71
2023/01/09 07:08:40;;;;;;;31.95;16.48;;;8.10;99.90;;;;;;5054827;28;20063;-71
2023/01/09 07:11:06;;;;;;;23.27;13.07;;;8.10;99.90;;;;;;5049420;28;20052;-71
2023/01/09 07:13:32;;;;;;;26.00;14.75;;;8.20;99.90;;;;;;5068010;28;20024;-71
2023/01/09 07:15:58;;;;;;;21.85;12.65;;;8.20;99.90;;;;;;5074868;28;20070;-71
2023/01/09 07:18:24;;;;;;;23.17;13.60;;;8.30;99.90;;;;;;5058915;28;20472;-71
2023/01/09 07:20:50;;;;;;;30.40;15.82;;;8.30;99.90;;;;;;5054543;28;20044;-71
2023/01/09 07:23:17;;;;;;;25.65;14.68;;;8.40;99.90;;;;;;5068145;28;20075;-71
2023/01/09 07:25:43;;;;;;;29.15;15.63;;;8.40;99.90;;;;;;5057636;28;20025;-71
2023/01/09 07:28:09;;;;;;;30.48;13.98;;;8.40;99.90;;;;;;5054479;28;20111;-71
2023/01/09 07:30:35;;;;;;;22.85;12.35;;;8.40;99.90;;;;;;5052965;28;20032;-71
2023/01/09 07:33:01;;;;;;;24.38;12.90;;;8.50;99.90;;;;;;5054585;28;20070;-71
2023/01/09 07:35:27;;;;;;;25.23;14.20;;;8.50;99.90;;;;;;5067058;28;20040;-71
2023/01/09 07:37:53;;;;;;;25.50;12.43;;;8.50;99.90;;;;;;5065064;28;20024;-71
2023/01/09 07:40:19;;;;;;;26.83;14.40;;;8.60;99.90;;;;;;5043247;28;20021;-71
2023/01/09 07:42:44;;;;;;;22.08;12.65;;;8.60;99.90;;;;;;5067037;28;20024;-70
2023/01/09 07:45:10;;;;;;;24.02;13.27;;;8.60;99.90;;;;;;5061384;28;20033;-71
2023/01/09 07:47:38;;;;;;;19.25;11.45;;;8.60;99.90;;;;;;5059604;28;20049;-71
2023/01/09 07:50:04;;;;;;;20.42;12.25;;;8.60;99.90;;;;;;5059585;28;20028;-72
2023/01/09 07:52:29;;;;;;;22.60;11.30;;;8.60;99.90;;;;;;5060126;28;20025;-71
2023/01/09 07:54:55;;;;;;;23.58;13.07;;;8.60;99.90;;;;;;5044648;28;20025;-71
2023/01/09 07:57:21;;;;;;;28.13;13.63;;;8.60;99.90;;;;;;5029542;28;20067;-71
2023/01/09 07:59:47;;;;;;;22.73;13.48;;;8.60;99.90;;;;;;5061197;28;20492;-72
2023/01/09 08:02:13;;;;;;;25.08;14.57;;;8.60;99.90;;;;;;5058598;28;20056;-71
2023/01/09 08:04:38;;;;;;;19.77;11.13;;;8.60;99.90;;;;;;5074088;28;20454;-71
2023/01/09 08:07:04;;;;;;;24.73;13.43;;;8.70;99.90;;;;;;5073333;28;20035;-71
2023/01/09 08:09:30;;;;;;;23.17;12.68;;;8.70;99.90;;;;;;5073665;28;20480;-71
2023/01/09 08:11:56;;;;;;;20.50;12.43;;;8.70;99.90;;;;;;5054187;28;20017;-71
2023/01/09 08:14:22;;;;;;;24.70;14.45;;;8.80;99.90;;;;;;5048684;28;20575;-71
2023/01/09 08:16:48;;;;;;;28.48;15.02;;;8.80;99.90;;;;;;5035620;28;20140;-71
2023/01/09 08:19:14;;;;;;;24.20;13.73;;;8.80;99.90;;;;;;5060761;28;20025;-71
2023/01/09 08:21:40;;;;;;;23.23;12.68;;;8.80;99.90;;;;;;5053238;28;20029;-71
2023/01/09 08:24:06;;;;;;;25.08;13.68;;;8.80;99.90;;;;;;5046597;28;20083;-71
2023/01/09 08:26:32;;;;;;;23.35;13.68;;;8.90;99.90;;;;;;5047064;28;20372;-71
2023/01/09 08:28:58;;;;;;;26.85;15.88;;;8.90;99.90;;;;;;5061052;28;20491;-71
2023/01/09 08:31:24;;;;;;;30.88;18.38;;;8.90;99.90;;;;;;5072250;28;20024;-71
2023/01/09 08:33:49;;;;;;;34.20;18.10;;;9.00;99.90;;;;;;5051742;28;20032;-71
2023/01/09 08:36:15;;;;;;;33.72;18.67;;;9.00;99.90;;;;;;5062103;28;20032;-70
2023/01/09 08:38:41;;;;;;;28.83;15.73;;;9.00;99.90;;;;;;5049225;28;20059;-72
2023/01/09 08:49:21;;;;;;;32.35;17.13;;;9.20;99.90;;;;;;5052839;28;20037;-71
2023/01/09 08:51:47;;;;;;;23.15;13.80;;;9.30;99.90;;;;;;5052884;28;20040;-71
2023/01/09 08:54:13;;;;;;;27.15;15.40;;;9.30;99.90;;;;;;5066454;28;20025;-72
2023/01/09 08:56:38;;;;;;;35.90;18.08;;;9.40;99.90;;;;;;5036589;28;20036;-72
2023/01/09 08:59:04;;;;;;;31.83;17.67;;;9.40;99.90;;;;;;5071359;28;20020;-71
2023/01/09 09:01:31;;;;;;;32.65;18.92;;;9.40;99.90;;;;;;5052624;28;20051;-72
2023/01/09 09:03:57;;;;;;;26.88;15.38;;;9.40;99.90;;;;;;5044529;28;20049;-71
2023/01/09 09:06:22;;;;;;;31.10;19.02;;;9.40;99.90;;;;;;5053240;28;20103;-71
2023/01/09 09:08:48;;;;;;;23.83;13.63;;;9.50;99.90;;;;;;5073400;28;20039;-72
2023/01/09 09:11:14;;;;;;;25.42;14.30;;;9.50;99.90;;;;;;5054644;28;20041;-71
2023/01/09 09:13:40;;;;;;;23.50;13.25;;;9.50;99.90;;;;;;5062772;28;20028;-73
2023/01/09 09:16:06;;;;;;;23.75;12.43;;;9.60;99.90;;;;;;5072943;28;20067;-72
2023/01/09 09:18:31;;;;;;;22.05;11.93;;;9.60;99.90;;;;;;5072943;28;20104;-71
2023/01/09 09:20:57;;;;;;;22.27;12.40;;;9.60;99.90;;;;;;5046366;28;20025;-73
2023/01/09 09:23:23;;;;;;;21.67;12.50;;;9.70;99.90;;;;;;5045086;28;20519;-72
2023/01/09 09:25:49;;;;;;;22.42;12.00;;;9.70;99.90;;;;;;5052556;28;20021;-73
2023/01/09 09:28:15;;;;;;;24.10;11.10;;;9.70;99.90;;;;;;5052401;28;20064;-71
2023/01/09 09:30:41;;;;;;;23.08;12.40;;;9.80;99.90;;;;;;5052977;28;20473;-72
2023/01/09 09:33:07;;;;;;;21.13;11.57;;;9.80;99.90;;;;;;5070655;28;20532;-71
2023/01/09 09:35:33;;;;;;;20.17;12.18;;;9.80;99.90;;;;;;5061193;28;20104;-71
2023/01/09 09:38:01;;;;;;;23.13;12.98;;;9.80;99.90;;;;;;5056861;28;20057;-70
2023/01/09 09:40:45;;;;;;;24.05;12.57;;;9.80;99.90;;;;;;5048600;28;20068;-72
2023/01/09 09:46:11;;;;;;;23.45;13.25;;;9.80;99.90;;;;;;5051067;28;20084;-71
2023/01/09 09:48:48;;;;;;;21.85;11.55;;;9.80;99.90;;;;;;5040940;28;20033;-72
2023/01/09 09:52:15;;;;;;;21.33;11.77;;;9.80;99.90;;;;;;5045766;28;20037;-71
2023/01/09 09:54:48;;;;;;;21.33;12.13;;;9.90;99.90;;;;;;4889706;29;20040;-71
2023/01/09 09:57:19;;;;;;;19.88;11.55;;;10.00;99.90;;;;;;4896718;29;20028;-72
2023/01/09 09:59:50;;;;;;;24.50;13.00;;;10.00;99.90;;;;;;4895661;29;20048;-71
2023/01/09 10:02:31;;;;;;;21.73;12.75;;;10.10;99.90;;;;;;4895088;29;20076;-72
2023/01/09 10:05:11;;;;;;;23.88;12.63;;;10.10;99.90;;;;;;4895148;29;20076;-72
2023/01/09 10:07:45;;;;;;;23.23;11.93;;;10.20;99.90;;;;;;4895261;29;20032;-72
2023/01/09 10:10:23;;;;;;;22.08;12.15;;;10.30;99.90;;;;;;4895346;29;20029;-72
2023/01/09 10:12:54;;;;;;;24.73;13.63;;;10.40;99.90;;;;;;4894853;29;20116;-72
2023/01/09 10:15:28;;;;;;;21.48;13.45;;;10.50;99.90;;;;;;4878461;29;20025;-72
2023/01/09 10:18:19;;;;;;;25.58;13.13;;;10.60;99.90;;;;;;4898638;29;20044;-71
2023/01/09 10:21:18;;;;;;;22.45;12.68;;;10.70;99.90;;;;;;4898277;29;20508;-72
2023/01/09 10:23:50;;;;;;;24.90;14.85;;;10.70;99.90;;;;;;4897533;29;20052;-71
2023/01/09 10:26:37;;;;;;;26.17;13.60;;;10.70;99.90;;;;;;4980026;28;20394;-71
2023/01/09 10:29:09;;;;;;;22.85;13.75;;;10.70;99.90;;;;;;4994491;28;20030;-71
2023/01/09 10:31:53;;;;;;;23.25;11.32;;;10.70;99.90;;;;;;5027330;28;20436;-71
2023/01/09 10:34:47;;;;;;;23.88;13.82;;;10.70;99.90;;;;;;5055543;28;20037;-72
2023/01/09 10:37:22;;;;;;;24.92;15.27;;;10.70;99.90;;;;;;5055434;28;20021;-71
2023/01/09 10:40:01;;;;;;;24.10;14.93;;;10.70;99.90;;;;;;5068871;28;20025;-72
2023/01/09 10:42:33;;;;;;;22.58;13.43;;;10.80;99.90;;;;;;5058919;28;20032;-71
2023/01/09 10:45:08;;;;;;;20.00;12.55;;;10.80;99.90;;;;;;5052303;28;20078;-72
2023/01/09 10:47:38;;;;;;;25.27;13.23;;;10.80;99.90;;;;;;5050598;28;20073;-72
2023/01/09 10:50:27;;;;;;;24.10;12.95;;;10.80;99.90;;;;;;5058572;28;20012;-71
2023/01/09 10:52:55;;;;;;;31.30;16.67;;;10.80;99.90;;;;;;5056158;28;20025;-71
2023/01/09 10:55:35;;;;;;;24.52;13.13;;;10.90;99.90;;;;;;5053200;28;20025;-72
2023/01/09 10:58:09;;;;;;;23.67;14.73;;;10.90;99.90;;;;;;5074157;28;20021;-72
2023/01/09 11:00:35;;;;;;;24.05;13.60;;;11.00;99.90;;;;;;5061663;28;20052;-71
2023/01/09 11:03:01;;;;;;;28.25;16.13;;;11.00;99.90;;;;;;5068246;28;20028;-72
2023/01/09 11:05:29;;;;;;;26.98;14.88;;;11.00;99.90;;;;;;5064271;28;20040;-72
2023/01/09 11:07:55;;;;;;;32.63;17.02;;;11.10;99.90;;;;;;5051645;28;20441;-72
2023/01/09 11:10:21;;;;;;;26.70;14.35;;;11.10;99.90;;;;;;5044088;28;20104;-71
2023/01/09 11:12:47;;;;;;;32.00;14.40;;;11.10;99.90;;;;;;5062317;28;20081;-72
2023/01/09 11:15:15;;;;;;;34.20;18.17;;;11.10;99.90;;;;;;5073977;28;20025;-72
2023/01/09 11:17:49;;;;;;;33.28;16.65;;;11.10;99.90;;;;;;5050012;28;20026;-72
2023/01/09 11:20:21;;;;;;;28.10;15.07;;;11.10;99.90;;;;;;5048877;28;20147;-71
2023/01/09 11:22:49;;;;;;;30.17;15.57;;;11.10;99.90;;;;;;5046961;28;20052;-72
2023/01/09 11:25:18;;;;;;;29.77;14.35;;;11.10;99.90;;;;;;5059220;28;20037;-71
2023/01/09 11:28:02;;;;;;;27.05;14.85;;;11.10;99.90;;;;;;5047514;28;20153;-71
2023/01/09 11:30:29;;;;;;;26.67;15.02;;;11.10;99.90;;;;;;5066630;28;20025;-71
2023/01/09 11:32:57;;;;;;;22.35;13.18;;;11.10;99.90;;;;;;5051388;28;20048;-71
2023/01/09 11:35:31;;;;;;;27.95;14.68;;;11.10;99.90;;;;;;5064011;28;20082;-71
2023/01/09 11:38:14;;;;;;;24.02;13.20;;;11.10;99.90;;;;;;5053111;28;20104;-71
2023/01/09 11:40:49;;;;;;;32.33;15.75;;;11.10;99.90;;;;;;5065588;28;20035;-71
2023/01/09 11:43:29;;;;;;;27.38;16.45;;;11.20;99.90;;;;;;5054049;28;20025;-71
2023/01/09 11:45:57;;;;;;;24.83;12.40;;;11.30;99.90;;;;;;5059726;28;20053;-71
2023/01/09 11:48:35;;;;;;;21.90;12.70;;;11.40;99.90;;;;;;5064433;28;20017;-71
2023/01/09 11:51:15;;;;;;;27.70;14.48;;;11.50;99.90;;;;;;5051298;28;20030;-71
2023/01/09 11:53:53;;;;;;;25.85;15.07;;;11.50;99.90;;;;;;5033945;28;20633;-72
2023/01/09 11:56:19;;;;;;;26.15;12.48;;;11.50;99.90;;;;;;5043799;28;20055;-73
2023/01/09 11:58:45;;;;;;;24.40;13.93;;;11.50;99.90;;;;;;5041491;28;20029;-72
2023/01/09 12:01:29;;;;;;;28.60;13.88;;;11.50;99.90;;;;;;5046107;28;20043;-71
2023/01/09 12:04:22;;;;;;;25.92;13.25;;;11.50;99.90;;;;;;5053570;28;20033;-73
2023/01/09 12:06:57;;;;;;;;;;;11.50;99.90;;;;;;5053718;28;20029;-70
2023/01/09 12:09:34;;;;;;;25.75;13.82;;;11.50;99.90;;;;;;5036007;28;19915;-70
2023/01/09 12:12:10;;;;;;;26.40;15.02;;;11.50;99.90;;;;;;5053261;28;20052;-72
2023/01/09 12:14:53;;;;;;;28.00;14.15;;;11.50;99.90;;;;;;5053386;28;20048;-72
2023/01/09 12:17:55;;;;;;;24.95;13.80;;;11.50;99.90;;;;;;5053660;28;20048;-73
2023/01/09 12:20:32;;;;;;;28.77;14.00;;;11.50;99.90;;;;;;5043823;28;20052;-72
2023/01/09 12:23:01;;;;;;;30.73;14.48;;;11.50;99.90;;;;;;5049934;28;20026;-72
2023/01/09 12:25:55;;;;;;;26.30;14.68;;;11.60;99.90;;;;;;5042537;28;20040;-71
2023/01/09 12:28:49;;;;;;;23.70;13.07;;;11.60;99.90;;;;;;4972523;28;20035;-71
2023/01/09 12:31:40;;;;;;;26.92;16.88;;;11.60;99.90;;;;;;4972510;28;20093;-71
2023/01/09 12:34:37;;;;;;;28.88;13.90;;;11.60;99.90;;;;;;4972424;28;20039;-73
2023/01/09 12:37:33;;;;;;;24.70;13.80;;;11.70;99.90;;;;;;4956007;28;20069;-71
2023/01/09 12:40:31;;;;;;;20.40;12.43;;;11.70;99.90;;;;;;4962793;28;20101;-70
2023/01/09 12:43:08;;;;;;;24.75;12.68;;;11.70;99.90;;;;;;4968145;28;20439;-71
2023/01/09 12:45:40;;;;;;;29.33;15.57;;;11.80;99.90;;;;;;4946879;28;20047;-70
2023/01/09 12:48:20;;;;;;;24.35;13.15;;;11.80;99.90;;;;;;4972058;28;20066;-70
2023/01/09 12:50:54;;;;;;;26.67;14.38;;;11.90;99.90;;;;;;4972552;28;20089;-71
2023/01/09 12:53:29;;;;;;;22.40;11.77;;;11.90;99.90;;;;;;4970451;28;20410;-70
2023/01/09 12:56:09;;;;;;;27.83;13.25;;;11.90;99.90;;;;;;4967799;28;20026;-71
2023/01/09 12:59:06;;;;;;;23.15;13.90;;;11.90;99.90;;;;;;4980145;28;20046;-71
2023/01/09 13:01:38;;;;;;;31.42;14.50;;;12.00;99.90;;;;;;4915638;29;20040;-71
2023/01/09 13:04:07;;;;;;;30.23;14.73;;;12.00;99.90;;;;;;4923806;28;20530;-71
2023/01/09 13:06:38;;;;;;;27.80;13.43;;;12.00;99.90;;;;;;4952727;29;20039;-71